createdAt,value
2022-10-05T00:02:58.546Z,6.22
2022-10-05T00:06:01.269Z,6.17
2022-10-05T00:09:15.827Z,6.11
2022-10-05T00:12:20.493Z,6.04
2022-10-05T00:15:23.638Z,5.99
2022-10-05T00:18:27.144Z,5.99
2022-10-05T00:21:30.053Z,5.96
2022-10-05T00:24:32.769Z,5.96
2022-10-05T00:27:38.106Z,5.98
2022-10-05T00:30:41.115Z,5.97
2022-10-05T00:33:43.892Z,5.98
2022-10-05T00:36:47.042Z,5.94
2022-10-05T00:39:50.005Z,5.96
2022-10-05T00:43:23.586Z,5.91
2022-10-05T00:46:43.982Z,5.94
2022-10-05T00:50:05.480Z,5.93
2022-10-05T00:53:30.353Z,5.95
2022-10-05T00:56:51.610Z,6.00
2022-10-05T01:00:08.094Z,5.97
2022-10-05T01:03:16.307Z,5.95
2022-10-05T01:07:02.482Z,5.93
2022-10-05T01:10:16.095Z,5.91
2022-10-05T01:13:24.481Z,5.96
2022-10-05T01:16:36.235Z,5.96
2022-10-05T01:19:44.582Z,5.98
2022-10-05T01:23:18.121Z,6.07
2022-10-05T01:26:23.623Z,6.08
2022-10-05T01:29:51.055Z,5.99
2022-10-05T01:33:09.530Z,5.90
2022-10-05T01:36:12.298Z,5.85
2022-10-05T01:39:41.277Z,5.79
2022-10-05T01:42:59.388Z,5.80
2022-10-05T01:46:43.286Z,5.93
2022-10-05T01:50:07.250Z,5.86
2022-10-05T01:53:29.343Z,5.70
2022-10-05T01:56:39.091Z,5.61
2022-10-05T02:00:09.131Z,5.67
2022-10-05T02:03:33.483Z,5.77
2022-10-05T02:06:42.661Z,5.76
2022-10-05T02:10:09.131Z,5.74
2022-10-05T02:13:15.316Z,5.70
2022-10-05T02:16:29.659Z,5.66
2022-10-05T02:19:39.858Z,5.53
2022-10-05T02:22:53.441Z,5.41
2022-10-05T02:25:56.733Z,5.42
2022-10-05T02:29:05.715Z,5.45
2022-10-05T02:32:14.387Z,5.38
2022-10-05T02:35:19.225Z,5.46
2022-10-05T02:38:39.257Z,5.34
2022-10-05T02:42:04.044Z,5.31
2022-10-05T02:45:51.942Z,5.24
2022-10-05T02:49:03.751Z,5.22
2022-10-05T02:52:26.994Z,5.21
2022-10-05T02:55:49.607Z,5.21
2022-10-05T02:59:11.370Z,5.22
2022-10-05T03:02:26.775Z,5.24
2022-10-05T03:05:32.583Z,5.21
2022-10-05T03:08:54.588Z,5.24
2022-10-05T03:12:41.625Z,5.27
2022-10-05T03:16:00.067Z,5.29
2022-10-05T03:19:25.055Z,5.35
2022-10-05T03:22:42.782Z,5.34
2022-10-05T03:26:27.891Z,5.33
2022-10-05T03:29:42.847Z,5.26
2022-10-05T03:33:21.045Z,5.31
2022-10-05T03:36:39.272Z,5.32
2022-10-05T03:39:51.838Z,5.31
2022-10-05T03:43:01.090Z,5.32
2022-10-05T03:46:17.015Z,5.36
2022-10-05T03:49:28.024Z,5.33
2022-10-05T03:52:39.915Z,5.31
2022-10-05T03:55:49.829Z,5.26
2022-10-05T03:58:56.241Z,5.28
2022-10-05T04:02:06.914Z,5.32
2022-10-05T04:05:10.074Z,5.35
2022-10-05T04:08:37.822Z,5.28
2022-10-05T04:12:11.467Z,5.25
2022-10-05T04:15:36.450Z,5.25
2022-10-05T04:18:51.299Z,5.29
2022-10-05T04:22:03.695Z,5.11
2022-10-05T04:25:17.762Z,5.01
2022-10-05T04:28:46.451Z,4.94
2022-10-05T04:31:58.510Z,4.92
2022-10-05T04:35:26.151Z,4.87
2022-10-05T04:38:43.781Z,4.84
2022-10-05T04:42:06.493Z,4.85
2022-10-05T04:45:31.472Z,4.95
2022-10-05T04:48:46.602Z,4.95
2022-10-05T04:52:06.149Z,4.90
2022-10-05T04:55:22.589Z,4.82
2022-10-05T04:58:44.119Z,4.86
2022-10-05T05:02:03.471Z,4.91
2022-10-05T05:05:21.987Z,4.91
2022-10-05T05:09:09.424Z,4.95
2022-10-05T05:12:49.407Z,4.96
2022-10-05T05:16:07.827Z,5.04
2022-10-05T05:19:35.263Z,5.16
2022-10-05T05:22:47.497Z,5.18
2022-10-05T05:26:22.154Z,5.24
2022-10-05T05:29:50.327Z,5.34
2022-10-05T05:33:19.538Z,5.48
2022-10-05T05:36:36.354Z,5.66
2022-10-05T05:40:14.060Z,5.79
2022-10-05T05:43:45.017Z,5.95
2022-10-05T05:47:04.083Z,6.06
2022-10-05T05:50:24.451Z,6.23
2022-10-05T05:53:54.712Z,6.27
2022-10-05T05:57:21.900Z,6.38
2022-10-05T06:00:31.600Z,6.46
2022-10-05T06:03:44.994Z,6.52
2022-10-05T06:06:52.511Z,6.70
2022-10-05T06:10:00.355Z,6.78
2022-10-05T06:13:19.695Z,6.93
2022-10-05T06:16:58.527Z,7.05
2022-10-05T06:20:05.836Z,7.23
2022-10-05T06:23:25.848Z,7.52
2022-10-05T06:27:03.686Z,7.67
2022-10-05T06:30:07.709Z,7.93
2022-10-05T06:33:29.648Z,8.21
2022-10-05T06:37:09.115Z,8.42
2022-10-05T06:40:34.000Z,9.04
2022-10-05T06:43:57.287Z,11.81
2022-10-05T06:47:22.019Z,14.12
2022-10-05T06:50:54.991Z,16.12
2022-10-05T06:54:45.234Z,17.51
2022-10-05T06:58:11.155Z,18.64
2022-10-05T07:01:37.390Z,18.80
2022-10-05T07:05:03.689Z,19.97
2022-10-05T07:08:25.310Z,21.49
2022-10-05T07:11:34.507Z,21.68
2022-10-05T07:14:52.965Z,22.25
2022-10-05T07:18:21.862Z,24.38
2022-10-05T07:21:49.637Z,24.31
2022-10-05T07:25:15.577Z,24.48
2022-10-05T07:28:33.383Z,25.36
2022-10-05T07:31:48.686Z,25.38
2022-10-05T07:35:30.707Z,26.31
2022-10-05T07:38:44.945Z,26.61
2022-10-05T07:42:04.544Z,26.43
2022-10-05T07:45:28.290Z,26.80
2022-10-05T07:48:50.534Z,27.07
2022-10-05T07:51:58.556Z,26.96
2022-10-05T07:55:25.689Z,28.65
2022-10-05T07:58:41.565Z,28.40
2022-10-05T08:01:54.879Z,29.66
2022-10-05T08:05:04.279Z,29.48
2022-10-05T08:08:19.834Z,29.50
2022-10-05T08:12:04.405Z,29.56
2022-10-05T08:15:38.502Z,29.85
2022-10-05T08:19:06.983Z,29.61
2022-10-05T08:22:19.560Z,30.13
2022-10-05T08:25:36.986Z,30.49
2022-10-05T08:28:44.026Z,30.57
2022-10-05T08:31:50.615Z,30.36
2022-10-05T08:34:56.502Z,30.40
2022-10-05T08:38:03.963Z,30.74
2022-10-05T08:41:26.573Z,29.46
2022-10-05T08:44:50.717Z,29.54
2022-10-05T08:48:11.650Z,28.77
2022-10-05T08:51:37.098Z,28.26
2022-10-05T08:55:02.539Z,29.91
2022-10-05T08:58:24.497Z,31.41
2022-10-05T09:01:27.564Z,29.73
2022-10-05T09:04:49.948Z,30.80
2022-10-05T09:08:02.370Z,30.86
2022-10-05T09:11:12.302Z,30.05
2022-10-05T09:14:33.568Z,31.70
2022-10-05T09:17:55.092Z,31.62
2022-10-05T09:21:15.089Z,31.01
2022-10-05T09:24:53.067Z,33.10
2022-10-05T09:27:59.123Z,33.05
2022-10-05T09:31:13.692Z,32.63
2022-10-05T09:34:28.698Z,33.32
2022-10-05T09:38:02.438Z,33.10
2022-10-05T09:41:29.653Z,33.45
2022-10-05T09:44:53.044Z,34.07
2022-10-05T09:48:07.543Z,33.98
2022-10-05T09:51:23.096Z,32.96
2022-10-05T09:54:53.056Z,32.98
2022-10-05T09:58:04.555Z,34.27
2022-10-05T10:01:33.295Z,34.05
2022-10-05T10:04:50.666Z,34.12
2022-10-05T10:08:27.338Z,33.80
2022-10-05T10:11:40.128Z,34.13
2022-10-05T10:15:07.155Z,33.98
2022-10-05T10:19:06.053Z,33.62
2022-10-05T10:22:42.968Z,34.89
2022-10-05T10:25:49.264Z,34.54
2022-10-05T10:29:16.993Z,32.10
2022-10-05T10:32:38.709Z,30.93
2022-10-05T10:35:49.321Z,32.75
2022-10-05T10:38:52.265Z,33.43
2022-10-05T10:42:12.310Z,33.10
2022-10-05T10:45:32.373Z,33.60
2022-10-05T10:48:54.744Z,32.36
2022-10-05T10:52:06.821Z,33.29
2022-10-05T10:55:55.909Z,32.13
2022-10-05T10:59:26.609Z,33.50
2022-10-05T11:02:50.793Z,33.63
2022-10-05T11:06:12.846Z,32.80
2022-10-05T11:09:32.078Z,32.64
2022-10-05T11:12:59.604Z,32.02
2022-10-05T11:16:28.156Z,32.46
2022-10-05T11:20:05.376Z,33.77
2022-10-05T11:23:45.368Z,34.61
2022-10-05T11:26:51.772Z,33.41
2022-10-05T11:30:34.795Z,32.30
2022-10-05T11:34:21.054Z,33.94
2022-10-05T11:37:53.854Z,33.78
2022-10-05T11:41:19.583Z,34.97
2022-10-05T11:44:31.316Z,34.22
2022-10-05T11:48:02.812Z,33.13
2022-10-05T11:51:14.718Z,32.56
2022-10-05T11:58:22.262Z,28.92
2022-10-05T12:01:48.473Z,26.80
2022-10-05T12:05:06.708Z,25.74
2022-10-05T12:08:28.134Z,25.90
2022-10-05T12:11:47.239Z,26.51
2022-10-05T12:14:59.387Z,28.76
2022-10-05T12:18:14.203Z,29.31
2022-10-05T12:21:34.966Z,30.30
2022-10-05T12:24:37.658Z,30.38
2022-10-05T12:27:46.325Z,29.46
2022-10-05T12:30:49.087Z,29.72
2022-10-05T12:34:05.618Z,29.37
2022-10-05T12:37:11.022Z,28.68
2022-10-05T12:40:25.785Z,27.50
2022-10-05T12:43:40.552Z,25.95
2022-10-05T12:46:46.408Z,25.67
2022-10-05T12:50:02.401Z,26.68
2022-10-05T12:53:43.751Z,26.81
2022-10-05T12:56:52.163Z,25.41
2022-10-05T13:00:22.469Z,24.52
2022-10-05T13:03:34.689Z,23.65
2022-10-05T13:07:04.699Z,23.64
2022-10-05T13:10:35.513Z,23.06
2022-10-05T13:14:16.592Z,23.37
2022-10-05T13:17:39.837Z,23.95
2022-10-05T13:20:57.010Z,24.62
2022-10-05T13:24:03.301Z,25.74
2022-10-05T13:27:22.241Z,24.66
2022-10-05T13:30:26.976Z,26.15
2022-10-05T13:34:00.141Z,25.54
2022-10-05T13:37:20.191Z,24.97
2022-10-05T13:40:29.653Z,24.41
2022-10-05T13:43:50.726Z,24.27
2022-10-05T13:47:31.706Z,23.31
2022-10-05T13:50:44.584Z,24.05
2022-10-05T13:53:56.134Z,24.68
2022-10-05T13:57:08.070Z,23.73
2022-10-05T14:00:45.024Z,23.06
2022-10-05T14:07:39.330Z,22.13
2022-10-05T14:10:47.686Z,22.05
2022-10-05T14:13:50.889Z,21.98
2022-10-05T14:20:37.417Z,22.71
2022-10-05T14:23:40.210Z,22.63
2022-10-05T14:26:52.659Z,22.54
2022-10-05T14:29:59.840Z,22.69
2022-10-05T14:33:05.366Z,21.75
2022-10-05T14:36:22.418Z,21.68
2022-10-05T14:39:33.199Z,21.54
2022-10-05T14:42:47.126Z,21.32
2022-10-05T14:45:58.192Z,20.86
2022-10-05T14:49:19.438Z,19.81
2022-10-05T14:58:07.528Z,19.41
2022-10-05T15:01:19.374Z,19.06
2022-10-05T15:04:42.451Z,18.98
2022-10-05T15:07:49.382Z,18.81
2022-10-05T15:11:01.221Z,18.75
2022-10-05T15:14:16.291Z,18.67
2022-10-05T15:17:42.865Z,18.58
2022-10-05T15:20:45.696Z,18.42
2022-10-05T15:24:02.853Z,18.18
2022-10-05T15:27:06.478Z,18.02
2022-10-05T15:30:11.721Z,17.85
2022-10-05T15:33:43.466Z,17.77
2022-10-05T15:36:58.200Z,17.50
2022-10-05T15:40:08.607Z,17.54
2022-10-05T15:43:19.053Z,17.41
2022-10-05T15:46:55.442Z,17.23
2022-10-05T15:50:17.767Z,17.27
2022-10-05T15:53:28.689Z,17.05
2022-10-05T15:56:38.841Z,16.92
2022-10-05T16:00:10.406Z,16.71
2022-10-05T16:03:28.650Z,16.57
2022-10-05T16:06:50.050Z,16.45
2022-10-05T16:10:14.049Z,16.25
2022-10-05T16:13:38.145Z,15.95
2022-10-05T16:17:01.955Z,15.81
2022-10-05T16:20:32.588Z,15.56
2022-10-05T16:23:55.476Z,15.41
2022-10-05T16:27:03.716Z,15.29
2022-10-05T16:30:11.998Z,15.16
2022-10-05T16:33:24.028Z,14.96
2022-10-05T16:36:49.909Z,14.90
2022-10-05T16:40:21.704Z,14.88
2022-10-05T16:43:25.711Z,14.75
2022-10-05T16:46:50.242Z,14.67
2022-10-05T16:50:17.009Z,14.80
2022-10-05T16:53:26.202Z,14.73
2022-10-05T16:56:41.313Z,14.67
2022-10-05T17:00:15.675Z,14.62
2022-10-05T17:03:31.733Z,14.54
2022-10-05T17:06:46.704Z,14.44
2022-10-05T17:10:18.874Z,14.33
2022-10-05T17:14:01.493Z,14.24
2022-10-05T17:17:28.953Z,14.30
2022-10-05T17:20:42.760Z,14.28
2022-10-05T17:24:12.646Z,14.16
2022-10-05T17:27:35.600Z,14.16
2022-10-05T17:31:18.794Z,14.02
2022-10-05T17:34:27.460Z,14.03
2022-10-05T17:37:31.991Z,13.92
2022-10-05T17:40:39.257Z,13.97
2022-10-05T17:44:13.816Z,13.88
2022-10-05T17:47:54.242Z,13.72
2022-10-05T17:51:16.666Z,13.62
2022-10-05T17:54:37.685Z,13.59
2022-10-05T17:57:41.978Z,13.54
2022-10-05T18:01:13.391Z,13.50
2022-10-05T18:04:24.949Z,13.50
2022-10-05T18:07:28.603Z,13.60
2022-10-05T18:10:34.028Z,13.58
2022-10-05T18:13:50.188Z,13.50
2022-10-05T18:17:10.427Z,13.48
2022-10-05T18:20:24.015Z,13.54
2022-10-05T18:23:30.331Z,13.58
2022-10-05T18:27:02.312Z,13.54
2022-10-05T18:30:22.344Z,13.51
2022-10-05T18:33:59.716Z,13.43
2022-10-05T18:37:25.707Z,13.47
2022-10-05T18:40:46.747Z,13.48
2022-10-05T18:43:51.124Z,13.41
2022-10-05T18:47:45.664Z,13.37
2022-10-05T18:51:22.912Z,13.25
2022-10-05T18:54:57.615Z,13.22
2022-10-05T18:58:06.503Z,13.12
2022-10-05T19:01:37.190Z,13.09
2022-10-05T19:05:42.969Z,12.93
2022-10-05T19:09:00.673Z,12.72
2022-10-05T19:12:12.226Z,12.73
2022-10-05T19:15:40.638Z,12.62
2022-10-05T19:19:01.547Z,12.61
2022-10-05T19:22:09.417Z,12.60
2022-10-05T19:25:21.465Z,12.46
2022-10-05T19:28:37.321Z,12.34
2022-10-05T19:31:56.628Z,12.30
2022-10-05T19:35:02.286Z,12.21
2022-10-05T19:38:21.895Z,12.13
2022-10-05T19:41:37.152Z,12.05
2022-10-05T19:45:34.470Z,11.95
2022-10-05T19:48:53.239Z,11.79
2022-10-05T19:51:57.833Z,11.70
2022-10-05T19:55:12.824Z,11.62
2022-10-05T19:58:22.029Z,11.63
2022-10-05T20:01:35.544Z,11.60
2022-10-05T20:04:41.258Z,11.44
2022-10-05T20:07:44.060Z,11.38
2022-10-05T20:11:13.755Z,11.29
2022-10-05T20:14:18.549Z,11.22
2022-10-05T20:17:47.399Z,11.09
2022-10-05T20:20:50.304Z,11.01
2022-10-05T20:27:46.795Z,10.96
2022-10-05T20:30:49.436Z,10.88
2022-10-05T20:33:52.538Z,10.81
2022-10-05T20:36:55.302Z,10.70
2022-10-05T20:39:58.092Z,10.67
2022-10-05T20:43:00.818Z,10.64
2022-10-05T20:46:03.846Z,10.58
2022-10-05T20:49:09.720Z,10.57
2022-10-05T20:52:15.454Z,10.55
2022-10-05T20:55:18.147Z,10.53
2022-10-05T20:58:21.142Z,10.45
2022-10-05T21:01:26.836Z,10.41
2022-10-05T21:04:40.030Z,10.34
2022-10-05T21:07:43.738Z,10.30
2022-10-05T21:10:46.869Z,10.25
2022-10-05T21:13:50.069Z,10.21
2022-10-05T21:16:52.792Z,10.17
2022-10-05T21:19:55.552Z,10.12
2022-10-05T21:22:58.218Z,10.07
2022-10-05T21:26:01.819Z,10.11
2022-10-05T21:29:10.216Z,10.17
2022-10-05T21:32:14.935Z,10.34
2022-10-05T21:35:17.659Z,10.26
2022-10-05T21:38:20.425Z,10.20
2022-10-05T21:41:23.648Z,10.10
2022-10-05T21:44:26.328Z,10.16
2022-10-05T21:47:29.163Z,10.09
2022-10-05T21:50:33.084Z,9.97
2022-10-05T21:53:40.072Z,10.09
2022-10-05T21:56:47.289Z,10.14
2022-10-05T21:59:50.303Z,10.15
2022-10-05T22:02:53.034Z,10.08
2022-10-05T22:05:55.883Z,9.88
2022-10-05T22:08:59.803Z,9.80
2022-10-05T22:12:02.539Z,9.68
2022-10-05T22:15:07.453Z,9.63
2022-10-05T22:18:17.383Z,9.53
2022-10-05T22:21:21.324Z,9.49
2022-10-05T22:24:24.077Z,9.47
2022-10-05T22:27:29.674Z,9.56
2022-10-05T22:30:33.195Z,9.77
2022-10-05T22:33:37.326Z,9.89
2022-10-05T22:36:41.866Z,9.81
2022-10-05T22:39:44.597Z,9.70
2022-10-05T22:42:47.402Z,9.60
2022-10-05T22:45:50.361Z,9.56
2022-10-05T22:48:53.230Z,9.46
2022-10-05T22:51:56.141Z,9.51
2022-10-05T22:54:58.907Z,9.41
2022-10-05T22:58:02.045Z,9.47
2022-10-05T23:01:07.585Z,9.46
2022-10-05T23:04:12.204Z,9.37
2022-10-05T23:07:14.987Z,9.39
2022-10-05T23:10:18.712Z,9.34
2022-10-05T23:13:22.591Z,9.27
2022-10-05T23:16:27.714Z,9.35
2022-10-05T23:19:30.467Z,9.37
2022-10-05T23:22:37.439Z,9.33
2022-10-05T23:25:40.186Z,9.28
2022-10-05T23:28:47.226Z,9.21
2022-10-05T23:31:50.423Z,9.30
2022-10-05T23:34:53.201Z,9.33
2022-10-05T23:37:55.867Z,9.29
2022-10-05T23:41:02.598Z,9.22
2022-10-05T23:44:05.280Z,9.16
2022-10-05T23:47:08.029Z,9.03
2022-10-05T23:50:10.746Z,9.01
2022-10-05T23:53:14.299Z,8.96
2022-10-05T23:56:17.040Z,8.92
2022-10-05T23:59:19.710Z,8.87
